createdAt,value
2023-01-03T00:02:54.037Z,6.57
2023-01-03T00:05:57.877Z,6.14
2023-01-03T00:09:01.883Z,6.69
2023-01-03T00:12:06.080Z,6.36
2023-01-03T00:15:09.963Z,6.67
2023-01-03T00:18:13.988Z,6.53
2023-01-03T00:21:17.810Z,6.86
2023-01-03T00:24:21.741Z,6.78
2023-01-03T00:27:25.360Z,7.14
2023-01-03T00:30:29.317Z,7.03
2023-01-03T00:33:33.190Z,6.83
2023-01-03T00:36:37.259Z,6.75
2023-01-03T00:39:41.186Z,6.83
2023-01-03T00:42:45.247Z,7.06
2023-01-03T00:45:49.292Z,6.98
2023-01-03T00:48:53.396Z,7.20
2023-01-03T00:51:57.403Z,6.85
2023-01-03T00:55:01.568Z,7.28
2023-01-03T00:58:05.624Z,7.08
2023-01-03T01:01:09.486Z,7.17
2023-01-03T01:04:13.486Z,7.51
2023-01-03T01:07:17.451Z,7.37
2023-01-03T01:10:21.763Z,7.11
2023-01-03T01:13:25.818Z,7.08
2023-01-03T01:16:29.692Z,7.07
2023-01-03T01:19:33.737Z,7.34
2023-01-03T01:22:37.764Z,7.03
2023-01-03T01:25:42.007Z,7.11
2023-01-03T01:28:46.194Z,6.98
2023-01-03T01:31:50.340Z,6.89
2023-01-03T01:34:55.066Z,7.22
2023-01-03T01:37:59.216Z,7.03
2023-01-03T01:41:03.331Z,6.86
2023-01-03T01:44:07.131Z,7.04
2023-01-03T01:47:10.961Z,7.13
2023-01-03T01:50:15.143Z,6.68
2023-01-03T01:53:19.162Z,7.02
2023-01-03T01:56:23.230Z,6.59
2023-01-03T01:59:27.276Z,6.97
2023-01-03T02:02:31.535Z,7.14
2023-01-03T02:05:35.683Z,6.99
2023-01-03T02:08:39.805Z,7.27
2023-01-03T02:11:43.987Z,7.15
2023-01-03T02:14:51.115Z,7.16
2023-01-03T02:17:54.952Z,6.87
2023-01-03T02:20:59.078Z,6.68
2023-01-03T02:24:03.307Z,7.55
2023-01-03T02:27:07.370Z,7.77
2023-01-03T02:30:11.200Z,8.43
2023-01-03T02:33:15.248Z,8.53
2023-01-03T02:36:20.521Z,8.43
2023-01-03T02:39:24.325Z,8.74
2023-01-03T02:42:28.521Z,8.55
2023-01-03T02:45:32.191Z,8.73
2023-01-03T02:48:36.577Z,8.34
2023-01-03T02:51:40.691Z,9.00
2023-01-03T02:54:45.051Z,8.85
2023-01-03T02:57:48.792Z,8.36
2023-01-03T03:00:52.713Z,8.75
2023-01-03T03:03:56.723Z,8.86
2023-01-03T03:07:00.941Z,9.27
2023-01-03T03:10:04.963Z,9.26
2023-01-03T03:13:08.912Z,9.25
2023-01-03T03:16:13.150Z,9.01
2023-01-03T03:19:17.107Z,8.72
2023-01-03T03:22:21.265Z,9.50
2023-01-03T03:25:25.410Z,9.45
2023-01-03T03:28:29.415Z,9.08
2023-01-03T03:31:33.659Z,9.36
2023-01-03T03:34:38.846Z,9.56
2023-01-03T03:37:43.939Z,9.36
2023-01-03T03:40:47.873Z,9.78
2023-01-03T03:43:51.704Z,9.41
2023-01-03T03:47:04.185Z,9.59
2023-01-03T03:50:08.342Z,10.15
2023-01-03T03:53:12.401Z,9.88
2023-01-03T03:56:16.544Z,9.45
2023-01-03T03:59:20.497Z,9.62
2023-01-03T04:02:24.782Z,10.09
2023-01-03T04:05:28.611Z,9.62
2023-01-03T04:08:32.668Z,9.98
2023-01-03T04:11:36.934Z,10.20
2023-01-03T04:14:41.014Z,10.11
2023-01-03T04:17:45.029Z,10.01
2023-01-03T04:20:49.001Z,10.32
2023-01-03T04:23:53.206Z,10.76
2023-01-03T04:26:57.361Z,10.27
2023-01-03T04:30:01.559Z,9.92
2023-01-03T04:33:05.449Z,10.21
2023-01-03T04:36:09.417Z,10.32
2023-01-03T04:39:13.764Z,9.34
2023-01-03T04:42:17.875Z,9.61
2023-01-03T04:45:21.935Z,9.80
2023-01-03T04:48:25.688Z,8.76
2023-01-03T04:51:29.789Z,7.70
2023-01-03T04:54:34.108Z,6.31
2023-01-03T04:57:38.254Z,5.08
2023-01-03T05:00:42.135Z,3.81
2023-01-03T05:03:46.311Z,3.50
2023-01-03T05:06:50.571Z,2.21
2023-01-03T05:09:54.443Z,1.61
2023-01-03T05:12:58.591Z,1.88
2023-01-03T05:16:02.539Z,1.71
2023-01-03T05:19:06.800Z,1.42
2023-01-03T05:22:10.916Z,1.57
2023-01-03T05:25:14.976Z,1.31
2023-01-03T05:28:18.861Z,1.37
2023-01-03T05:31:22.965Z,1.63
2023-01-03T05:34:26.986Z,1.78
2023-01-03T05:37:31.182Z,1.81
2023-01-03T05:40:41.125Z,1.94
2023-01-03T05:43:45.432Z,1.94
2023-01-03T05:46:49.677Z,1.93
2023-01-03T05:49:53.752Z,2.03
2023-01-03T05:52:58.000Z,1.90
2023-01-03T05:56:02.010Z,1.89
2023-01-03T05:59:06.170Z,1.72
2023-01-03T06:02:10.298Z,1.83
2023-01-03T06:05:14.270Z,1.85
2023-01-03T06:08:18.137Z,1.84
2023-01-03T06:11:22.251Z,1.92
2023-01-03T06:14:26.276Z,1.97
2023-01-03T06:17:30.314Z,1.97
2023-01-03T06:20:34.540Z,2.35
2023-01-03T06:23:38.804Z,2.76
2023-01-03T06:26:42.909Z,2.64
2023-01-03T06:29:46.981Z,2.83
2023-01-03T06:32:50.961Z,3.04
2023-01-03T06:35:54.930Z,2.99
2023-01-03T06:38:59.324Z,3.25
2023-01-03T06:42:03.387Z,3.15
2023-01-03T06:45:10.408Z,4.54
2023-01-03T06:48:14.242Z,3.48
2023-01-03T06:51:18.468Z,4.33
2023-01-03T06:54:22.621Z,3.66
2023-01-03T06:57:27.568Z,2.60
2023-01-03T07:00:31.356Z,2.82
2023-01-03T07:03:35.491Z,2.60
2023-01-03T07:06:39.211Z,2.25
2023-01-03T07:09:43.258Z,2.68
2023-01-03T07:12:47.283Z,3.38
2023-01-03T07:15:51.331Z,2.66
2023-01-03T07:18:55.764Z,3.37
2023-01-03T07:21:59.867Z,3.19
2023-01-03T07:25:03.913Z,3.15
2023-01-03T07:28:10.139Z,2.67
2023-01-03T07:31:14.741Z,2.38
2023-01-03T07:34:18.724Z,2.44
2023-01-03T07:37:22.827Z,2.35
2023-01-03T07:40:26.942Z,1.95
2023-01-03T07:43:30.965Z,1.70
2023-01-03T07:46:35.037Z,1.82
2023-01-03T07:49:39.067Z,1.70
2023-01-03T07:52:43.267Z,1.55
2023-01-03T07:55:47.537Z,1.50
2023-01-03T07:58:51.706Z,1.48
2023-01-03T08:01:55.700Z,1.56
2023-01-03T08:04:59.377Z,1.66
2023-01-03T08:08:03.535Z,1.75
2023-01-03T08:11:07.668Z,1.27
2023-01-03T08:14:11.490Z,1.48
2023-01-03T08:17:15.454Z,1.68
2023-01-03T08:20:19.394Z,1.70
2023-01-03T08:23:23.845Z,1.87
2023-01-03T08:26:28.095Z,1.95
2023-01-03T08:29:32.116Z,2.84
2023-01-03T08:32:36.112Z,2.93
2023-01-03T08:35:40.205Z,3.20
2023-01-03T08:38:44.286Z,3.53
2023-01-03T08:41:48.550Z,3.85
2023-01-03T08:44:52.417Z,4.30
2023-01-03T08:47:56.507Z,4.03
2023-01-03T08:51:00.731Z,3.82
2023-01-03T08:54:04.741Z,3.73
2023-01-03T08:57:09.015Z,3.55
2023-01-03T09:00:12.950Z,3.40
2023-01-03T09:03:17.337Z,3.40
2023-01-03T09:06:21.325Z,3.17
2023-01-03T09:09:25.577Z,3.47
2023-01-03T09:12:29.589Z,3.23
2023-01-03T09:15:33.342Z,3.26
2023-01-03T09:18:37.650Z,3.16
2023-01-03T09:21:41.715Z,3.17
2023-01-03T09:24:45.616Z,3.22
2023-01-03T09:27:49.697Z,3.02
2023-01-03T09:30:53.802Z,3.35
2023-01-03T09:33:58.058Z,3.41
2023-01-03T09:37:02.081Z,2.44
2023-01-03T09:40:06.042Z,1.88
2023-01-03T09:43:09.740Z,2.17
2023-01-03T09:46:14.106Z,2.29
2023-01-03T09:49:18.272Z,2.02
2023-01-03T09:52:22.193Z,1.83
2023-01-03T09:55:26.297Z,1.94
2023-01-03T09:58:30.306Z,1.93
2023-01-03T10:01:34.421Z,2.76
2023-01-03T10:04:38.355Z,2.49
2023-01-03T10:07:42.368Z,3.30
2023-01-03T10:10:46.649Z,3.31
2023-01-03T10:13:53.090Z,3.53
2023-01-03T10:16:57.135Z,4.69
2023-01-03T10:20:01.295Z,3.27
2023-01-03T10:23:05.236Z,3.08
2023-01-03T10:26:09.316Z,3.31
2023-01-03T10:29:13.435Z,3.10
2023-01-03T10:32:17.658Z,3.13
2023-01-03T10:35:21.861Z,2.98
2023-01-03T10:38:25.517Z,2.92
2023-01-03T10:41:29.560Z,2.78
2023-01-03T10:44:33.689Z,2.90
2023-01-03T10:47:37.944Z,2.82
2023-01-03T10:50:41.951Z,2.69
2023-01-03T10:53:46.115Z,2.48
2023-01-03T10:56:50.236Z,2.83
2023-01-03T10:59:54.417Z,2.90
2023-01-03T11:02:58.698Z,2.81
2023-01-03T11:06:02.831Z,2.71
2023-01-03T11:09:06.956Z,2.18
2023-01-03T11:12:11.038Z,2.09
2023-01-03T11:15:15.339Z,2.31
2023-01-03T11:18:19.532Z,2.25
2023-01-03T11:21:23.582Z,2.59
2023-01-03T11:24:27.518Z,2.90
2023-01-03T11:27:31.565Z,2.66
2023-01-03T11:30:35.694Z,3.00
2023-01-03T11:33:39.767Z,2.99
2023-01-03T11:36:43.750Z,3.13
2023-01-03T11:39:47.685Z,3.03
2023-01-03T11:42:51.912Z,3.63
2023-01-03T11:45:55.954Z,3.97
2023-01-03T11:48:59.675Z,4.19
2023-01-03T11:52:03.903Z,4.40
2023-01-03T11:55:08.025Z,4.12
2023-01-03T11:58:11.913Z,4.16
2023-01-03T12:01:16.019Z,4.04
2023-01-03T12:04:20.047Z,4.06
2023-01-03T12:10:47.793Z,3.77
2023-01-03T12:13:51.820Z,2.91
2023-01-03T12:16:55.790Z,2.80
2023-01-03T12:19:59.692Z,2.55
2023-01-03T12:23:03.603Z,2.76
2023-01-03T12:26:08.034Z,2.97
2023-01-03T12:29:12.272Z,2.97
2023-01-03T12:32:18.094Z,2.86
2023-01-03T12:35:22.298Z,2.94
2023-01-03T12:38:29.405Z,3.06
2023-01-03T12:41:33.293Z,2.82
2023-01-03T12:44:37.436Z,2.46
2023-01-03T12:47:41.482Z,2.71
2023-01-03T12:50:45.408Z,3.01
2023-01-03T12:53:49.387Z,2.67
2023-01-03T12:56:53.567Z,2.50
2023-01-03T12:59:57.485Z,2.27
2023-01-03T13:03:01.939Z,2.39
2023-01-03T13:06:05.708Z,2.18
2023-01-03T13:09:09.715Z,2.05
2023-01-03T13:12:13.545Z,1.97
2023-01-03T13:15:18.022Z,2.20
2023-01-03T13:18:22.201Z,1.97
2023-01-03T13:21:26.190Z,2.03
2023-01-03T13:24:30.148Z,1.79
2023-01-03T13:27:34.309Z,2.06
2023-01-03T13:30:38.320Z,2.23
2023-01-03T13:33:42.172Z,2.20
2023-01-03T13:36:46.048Z,2.09
2023-01-03T13:39:50.188Z,2.01
2023-01-03T13:42:54.468Z,1.97
2023-01-03T13:45:58.633Z,1.96
2023-01-03T13:49:02.684Z,1.68
2023-01-03T13:52:06.759Z,1.77
2023-01-03T13:55:11.304Z,1.73
2023-01-03T13:58:15.531Z,1.81
2023-01-03T14:01:20.778Z,1.82
2023-01-03T14:04:24.836Z,1.47
2023-01-03T14:07:28.838Z,6.86
2023-01-03T14:10:32.965Z,1.82
2023-01-03T14:13:37.224Z,1.67
2023-01-03T14:16:43.074Z,1.56
2023-01-03T14:19:47.833Z,1.55
2023-01-03T14:22:51.827Z,1.50
2023-01-03T14:25:57.100Z,1.66
2023-01-03T14:29:01.187Z,1.62
2023-01-03T14:32:05.434Z,1.49
2023-01-03T14:35:09.279Z,1.95
2023-01-03T14:38:12.989Z,1.60
2023-01-03T14:41:17.136Z,1.63
2023-01-03T14:44:21.346Z,1.56
2023-01-03T14:47:25.406Z,1.56
2023-01-03T14:50:29.328Z,1.57
2023-01-03T14:53:33.312Z,1.67
2023-01-03T14:56:37.392Z,1.65
2023-01-03T14:59:41.660Z,1.81
2023-01-03T15:02:45.679Z,1.96
2023-01-03T15:05:49.652Z,2.01
2023-01-03T15:08:53.615Z,1.84
2023-01-03T15:11:57.727Z,2.20
2023-01-03T15:15:01.716Z,1.84
2023-01-03T15:18:07.056Z,1.98
2023-01-03T15:21:13.229Z,1.92
2023-01-03T15:24:17.244Z,1.81
2023-01-03T15:27:21.172Z,1.90
2023-01-03T15:30:25.196Z,1.75
2023-01-03T15:33:29.129Z,1.70
2023-01-03T15:36:33.174Z,1.57
2023-01-03T15:39:37.239Z,1.57
2023-01-03T15:42:45.351Z,1.65
2023-01-03T15:45:50.929Z,1.35
2023-01-03T15:48:55.225Z,1.54
2023-01-03T15:51:59.443Z,1.39
2023-01-03T15:55:03.761Z,1.37
2023-01-03T15:58:07.941Z,1.23
2023-01-03T16:01:12.345Z,1.30
2023-01-03T16:04:16.464Z,1.22
2023-01-03T16:07:20.494Z,1.25
2023-01-03T16:10:24.377Z,1.27
2023-01-03T16:13:28.390Z,1.33
2023-01-03T16:16:32.684Z,1.66
2023-01-03T16:19:36.589Z,1.57
2023-01-03T16:22:49.483Z,1.89
2023-01-03T16:25:58.155Z,2.07
2023-01-03T16:29:02.346Z,2.10
2023-01-03T16:32:06.538Z,2.93
2023-01-03T16:35:10.082Z,3.09
2023-01-03T16:38:14.054Z,3.18
2023-01-03T16:41:17.951Z,3.08
2023-01-03T16:44:22.072Z,2.98
2023-01-03T16:47:26.090Z,3.22
2023-01-03T16:50:32.492Z,3.41
2023-01-03T16:53:37.132Z,3.46
2023-01-03T16:56:41.073Z,3.35
2023-01-03T16:59:45.428Z,3.35
2023-01-03T17:02:49.839Z,3.69
2023-01-03T17:05:53.697Z,3.86
2023-01-03T17:08:57.540Z,4.11
2023-01-03T17:12:01.793Z,4.64
2023-01-03T17:15:05.996Z,5.98
2023-01-03T17:18:09.942Z,6.16
2023-01-03T17:21:13.634Z,6.23
2023-01-03T17:24:17.788Z,6.08
2023-01-03T17:27:25.170Z,5.70
2023-01-03T17:30:33.386Z,6.54
2023-01-03T17:33:37.534Z,6.95
2023-01-03T17:36:41.813Z,7.65
2023-01-03T17:39:45.840Z,7.63
2023-01-03T17:42:49.809Z,8.09
2023-01-03T17:45:53.954Z,7.86
2023-01-03T17:48:58.071Z,8.10
2023-01-03T17:52:01.968Z,8.99
2023-01-03T17:55:06.153Z,12.01
2023-01-03T17:58:10.358Z,12.40
2023-01-03T18:01:14.685Z,12.74
2023-01-03T18:04:18.513Z,10.66
2023-01-03T18:07:22.536Z,8.90
2023-01-03T18:10:26.099Z,8.75
2023-01-03T18:13:30.355Z,9.08
2023-01-03T18:16:34.334Z,9.76
2023-01-03T18:19:38.661Z,9.65
2023-01-03T18:22:42.793Z,8.85
2023-01-03T18:25:46.672Z,8.93
2023-01-03T18:28:50.679Z,9.12
2023-01-03T18:31:54.910Z,9.06
2023-01-03T18:34:58.665Z,8.60
2023-01-03T18:38:02.798Z,8.96
2023-01-03T18:41:06.546Z,8.65
2023-01-03T18:44:10.824Z,9.34
2023-01-03T18:47:14.860Z,9.39
2023-01-03T18:50:18.989Z,9.58
2023-01-03T18:53:22.961Z,11.33
2023-01-03T18:56:26.977Z,11.38
2023-01-03T18:59:31.061Z,12.42
2023-01-03T19:02:35.167Z,12.21
2023-01-03T19:05:38.974Z,14.14
2023-01-03T19:08:43.300Z,13.90
2023-01-03T19:11:47.477Z,13.92
2023-01-03T19:14:51.241Z,14.19
2023-01-03T19:17:55.125Z,15.07
2023-01-03T19:20:59.256Z,15.15
2023-01-03T19:24:03.453Z,14.77
2023-01-03T19:27:07.580Z,14.39
2023-01-03T19:30:11.570Z,13.43
2023-01-03T19:33:15.673Z,12.71
2023-01-03T19:36:19.321Z,12.46
2023-01-03T19:39:25.744Z,12.14
2023-01-03T19:42:30.779Z,11.84
2023-01-03T19:45:34.673Z,11.99
2023-01-03T19:48:38.611Z,11.43
2023-01-03T19:51:42.630Z,11.22
2023-01-03T19:54:46.650Z,10.91
2023-01-03T19:57:50.896Z,11.23
2023-01-03T20:00:54.827Z,11.02
2023-01-03T20:03:59.973Z,10.70
2023-01-03T20:07:04.268Z,11.19
2023-01-03T20:10:08.436Z,11.11
2023-01-03T20:13:12.268Z,11.88
2023-01-03T20:16:16.194Z,11.84
2023-01-03T20:19:20.141Z,12.33
2023-01-03T20:23:02.650Z,12.06
2023-01-03T20:25:47.806Z,12.66
2023-01-03T20:28:52.028Z,12.15
2023-01-03T20:31:56.280Z,12.49
2023-01-03T20:35:12.070Z,13.45
2023-01-03T20:38:24.488Z,13.33
2023-01-03T20:41:28.604Z,13.64
2023-01-03T20:44:32.438Z,12.90
2023-01-03T20:47:36.450Z,13.52
2023-01-03T20:50:40.684Z,13.58
2023-01-03T20:53:47.911Z,13.79
2023-01-03T20:56:54.709Z,13.95
2023-01-03T20:59:58.375Z,14.10
2023-01-03T21:03:02.622Z,13.46
2023-01-03T21:06:06.746Z,13.57
2023-01-03T21:09:10.884Z,13.83
2023-01-03T21:12:14.765Z,13.53
2023-01-03T21:15:18.477Z,13.25
2023-01-03T21:18:22.822Z,12.92
2023-01-03T21:21:26.731Z,13.32
2023-01-03T21:24:34.461Z,13.17
2023-01-03T21:27:42.402Z,13.23
2023-01-03T21:30:46.698Z,13.56
2023-01-03T21:33:50.782Z,13.57
2023-01-03T21:36:54.783Z,13.12
2023-01-03T21:39:58.994Z,13.14
2023-01-03T21:43:04.559Z,14.16
2023-01-03T21:46:09.022Z,13.57
2023-01-03T21:49:12.790Z,13.25
2023-01-03T21:52:16.776Z,13.82
2023-01-03T21:55:23.244Z,13.95
2023-01-03T21:58:27.239Z,13.87
2023-01-03T22:01:31.606Z,14.40
2023-01-03T22:04:35.630Z,14.60
2023-01-03T22:07:39.711Z,15.12
2023-01-03T22:10:43.931Z,14.46
2023-01-03T22:13:48.206Z,14.17
2023-01-03T22:16:52.278Z,14.45
2023-01-03T22:19:56.067Z,14.55
2023-01-03T22:23:00.195Z,13.83
2023-01-03T22:26:05.274Z,13.28
2023-01-03T22:29:09.399Z,13.62
2023-01-03T22:32:13.710Z,13.53
2023-01-03T22:35:19.987Z,12.90
2023-01-03T22:38:25.187Z,12.31
2023-01-03T22:41:29.200Z,12.35
2023-01-03T22:44:33.339Z,12.15
2023-01-03T22:47:37.621Z,12.30
2023-01-03T22:50:41.700Z,11.87
2023-01-03T22:53:45.796Z,11.45
2023-01-03T22:56:49.870Z,11.03
2023-01-03T22:59:53.981Z,10.80
2023-01-03T23:02:58.097Z,11.06
2023-01-03T23:06:02.019Z,10.91
2023-01-03T23:09:06.160Z,11.64
2023-01-03T23:12:10.253Z,10.86
2023-01-03T23:15:14.632Z,11.35
2023-01-03T23:18:18.578Z,11.89
2023-01-03T23:21:22.629Z,11.75
2023-01-03T23:24:26.761Z,11.26
2023-01-03T23:27:30.966Z,11.39
2023-01-03T23:30:35.053Z,11.26
2023-01-03T23:33:38.977Z,12.38
2023-01-03T23:36:43.629Z,12.03
2023-01-03T23:39:47.418Z,12.56
2023-01-03T23:42:51.933Z,13.36
2023-01-03T23:45:56.223Z,13.79
2023-01-03T23:48:59.895Z,13.68
2023-01-03T23:52:03.849Z,13.69
2023-01-03T23:55:12.386Z,13.83
2023-01-03T23:58:16.837Z,13.74
